sensor_id;sensor_type;location;lat;lon;timestamp;temperature;humidity
76104;HTU21D;64831;44.870;37.336;2023-07-13T00:00:12;23.02;77.92
76104;HTU21D;64831;44.870;37.336;2023-07-13T00:02:41;23.00;78.22
76104;HTU21D;64831;44.870;37.336;2023-07-13T00:05:07;22.98;78.37
76104;HTU21D;64831;44.870;37.336;2023-07-13T00:07:34;22.97;78.30
76104;HTU21D;64831;44.870;37.336;2023-07-13T00:10:01;22.96;78.69
76104;HTU21D;64831;44.870;37.336;2023-07-13T00:12:31;22.95;78.54
76104;HTU21D;64831;44.870;37.336;2023-07-13T00:14:59;22.95;78.28
76104;HTU21D;64831;44.870;37.336;2023-07-13T00:17:26;22.95;78.82
76104;HTU21D;64831;44.870;37.336;2023-07-13T00:19:53;22.94;78.66
76104;HTU21D;64831;44.870;37.336;2023-07-13T00:22:19;22.94;78.82
76104;HTU21D;64831;44.870;37.336;2023-07-13T00:24:45;22.95;78.82
76104;HTU21D;64831;44.870;37.336;2023-07-13T00:27:12;22.97;78.36
76104;HTU21D;64831;44.870;37.336;2023-07-13T00:29:38;22.97;78.11
76104;HTU21D;64831;44.870;37.336;2023-07-13T00:32:05;22.97;78.00
76104;HTU21D;64831;44.870;37.336;2023-07-13T00:34:31;22.96;77.89
76104;HTU21D;64831;44.870;37.336;2023-07-13T00:36:57;22.95;77.80
76104;HTU21D;64831;44.870;37.336;2023-07-13T00:39:23;22.95;77.74
76104;HTU21D;64831;44.870;37.336;2023-07-13T00:41:50;22.94;77.52
76104;HTU21D;64831;44.870;37.336;2023-07-13T00:44:18;22.93;77.33
76104;HTU21D;64831;44.870;37.336;2023-07-13T00:46:44;22.92;77.31
76104;HTU21D;64831;44.870;37.336;2023-07-13T00:49:13;22.86;77.34
76104;HTU21D;64831;44.870;37.336;2023-07-13T00:54:33;22.83;77.65
76104;HTU21D;64831;44.870;37.336;2023-07-13T00:57:03;22.84;77.51
76104;HTU21D;64831;44.870;37.336;2023-07-13T00:59:31;22.82;77.47
76104;HTU21D;64831;44.870;37.336;2023-07-13T01:01:57;22.80;77.37
76104;HTU21D;64831;44.870;37.336;2023-07-13T01:04:26;22.78;77.44
76104;HTU21D;64831;44.870;37.336;2023-07-13T01:06:52;22.79;77.39
76104;HTU21D;64831;44.870;37.336;2023-07-13T01:09:19;22.77;77.34
76104;HTU21D;64831;44.870;37.336;2023-07-13T01:11:45;22.77;77.34
76104;HTU21D;64831;44.870;37.336;2023-07-13T01:14:12;22.73;77.56
76104;HTU21D;64831;44.870;37.336;2023-07-13T01:16:39;22.75;77.75
76104;HTU21D;64831;44.870;37.336;2023-07-13T01:22:09;22.77;77.85
76104;HTU21D;64831;44.870;37.336;2023-07-13T01:24:39;22.77;78.34
76104;HTU21D;64831;44.870;37.336;2023-07-13T01:27:07;22.78;78.03
76104;HTU21D;64831;44.870;37.336;2023-07-13T01:29:34;22.78;77.95
76104;HTU21D;64831;44.870;37.336;2023-07-13T01:32:07;22.82;77.79
76104;HTU21D;64831;44.870;37.336;2023-07-13T01:34:33;22.79;77.81
76104;HTU21D;64831;44.870;37.336;2023-07-13T01:36:59;22.79;77.76
76104;HTU21D;64831;44.870;37.336;2023-07-13T01:39:27;22.78;77.60
76104;HTU21D;64831;44.870;37.336;2023-07-13T01:41:53;22.76;77.66
76104;HTU21D;64831;44.870;37.336;2023-07-13T01:44:19;22.73;77.98
76104;HTU21D;64831;44.870;37.336;2023-07-13T01:46:45;22.70;78.30
76104;HTU21D;64831;44.870;37.336;2023-07-13T01:49:11;22.71;78.11
76104;HTU21D;64831;44.870;37.336;2023-07-13T01:51:37;22.73;77.89
76104;HTU21D;64831;44.870;37.336;2023-07-13T01:54:03;22.72;78.01
76104;HTU21D;64831;44.870;37.336;2023-07-13T01:56:29;22.72;77.81
76104;HTU21D;64831;44.870;37.336;2023-07-13T01:58:55;22.72;78.29
76104;HTU21D;64831;44.870;37.336;2023-07-13T02:01:22;22.71;78.12
76104;HTU21D;64831;44.870;37.336;2023-07-13T02:03:48;22.73;77.98
76104;HTU21D;64831;44.870;37.336;2023-07-13T02:06:14;22.72;78.13
76104;HTU21D;64831;44.870;37.336;2023-07-13T02:08:41;22.72;77.95
76104;HTU21D;64831;44.870;37.336;2023-07-13T02:11:08;22.73;77.84
76104;HTU21D;64831;44.870;37.336;2023-07-13T02:13:34;22.72;77.88
76104;HTU21D;64831;44.870;37.336;2023-07-13T02:16:01;22.73;78.11
76104;HTU21D;64831;44.870;37.336;2023-07-13T02:18:26;22.73;77.90
76104;HTU21D;64831;44.870;37.336;2023-07-13T02:20:53;22.75;77.81
76104;HTU21D;64831;44.870;37.336;2023-07-13T02:23:19;22.75;77.79
76104;HTU21D;64831;44.870;37.336;2023-07-13T02:25:46;22.73;77.80
76104;HTU21D;64831;44.870;37.336;2023-07-13T02:28:12;22.76;77.72
76104;HTU21D;64831;44.870;37.336;2023-07-13T02:30:38;22.76;77.67
76104;HTU21D;64831;44.870;37.336;2023-07-13T02:33:05;22.78;77.72
76104;HTU21D;64831;44.870;37.336;2023-07-13T02:35:31;22.78;77.97
76104;HTU21D;64831;44.870;37.336;2023-07-13T02:37:58;22.80;77.86
76104;HTU21D;64831;44.870;37.336;2023-07-13T02:40:24;22.83;77.68
76104;HTU21D;64831;44.870;37.336;2023-07-13T02:42:51;22.84;77.57
76104;HTU21D;64831;44.870;37.336;2023-07-13T02:45:17;22.86;77.56
76104;HTU21D;64831;44.870;37.336;2023-07-13T02:47:43;22.91;77.53
76104;HTU21D;64831;44.870;37.336;2023-07-13T02:50:10;22.93;77.44
76104;HTU21D;64831;44.870;37.336;2023-07-13T02:52:36;22.99;77.41
76104;HTU21D;64831;44.870;37.336;2023-07-13T02:55:03;23.05;77.34
76104;HTU21D;64831;44.870;37.336;2023-07-13T02:57:29;23.09;77.27
76104;HTU21D;64831;44.870;37.336;2023-07-13T02:59:56;23.14;77.15
76104;HTU21D;64831;44.870;37.336;2023-07-13T03:02:22;23.20;77.05
76104;HTU21D;64831;44.870;37.336;2023-07-13T03:04:48;23.28;76.90
76104;HTU21D;64831;44.870;37.336;2023-07-13T03:07:14;23.31;76.74
76104;HTU21D;64831;44.870;37.336;2023-07-13T03:09:42;23.36;76.63
76104;HTU21D;64831;44.870;37.336;2023-07-13T03:12:08;23.41;76.51
76104;HTU21D;64831;44.870;37.336;2023-07-13T03:14:35;23.46;76.38
76104;HTU21D;64831;44.870;37.336;2023-07-13T03:17:04;23.51;76.24
76104;HTU21D;64831;44.870;37.336;2023-07-13T03:19:33;23.55;76.11
76104;HTU21D;64831;44.870;37.336;2023-07-13T03:22:02;23.60;76.00
76104;HTU21D;64831;44.870;37.336;2023-07-13T03:24:29;23.66;75.89
76104;HTU21D;64831;44.870;37.336;2023-07-13T03:26:56;23.71;75.84
76104;HTU21D;64831;44.870;37.336;2023-07-13T03:29:23;23.79;75.79
76104;HTU21D;64831;44.870;37.336;2023-07-13T03:31:50;23.86;75.63
76104;HTU21D;64831;44.870;37.336;2023-07-13T03:34:16;23.97;75.54
76104;HTU21D;64831;44.870;37.336;2023-07-13T03:36:42;24.05;75.33
76104;HTU21D;64831;44.870;37.336;2023-07-13T03:39:10;24.14;75.15
76104;HTU21D;64831;44.870;37.336;2023-07-13T03:41:48;24.21;74.96
76104;HTU21D;64831;44.870;37.336;2023-07-13T03:44:16;24.27;74.67
76104;HTU21D;64831;44.870;37.336;2023-07-13T03:46:42;24.29;74.56
76104;HTU21D;64831;44.870;37.336;2023-07-13T03:49:09;24.32;74.50
76104;HTU21D;64831;44.870;37.336;2023-07-13T03:51:35;24.38;74.54
76104;HTU21D;64831;44.870;37.336;2023-07-13T03:54:01;24.43;74.51
76104;HTU21D;64831;44.870;37.336;2023-07-13T03:56:28;24.49;74.24
76104;HTU21D;64831;44.870;37.336;2023-07-13T03:58:56;24.51;74.02
76104;HTU21D;64831;44.870;37.336;2023-07-13T04:01:23;24.51;73.88
76104;HTU21D;64831;44.870;37.336;2023-07-13T04:03:51;24.53;73.87
76104;HTU21D;64831;44.870;37.336;2023-07-13T04:06:23;24.54;73.80
76104;HTU21D;64831;44.870;37.336;2023-07-13T04:08:53;24.55;73.83
76104;HTU21D;64831;44.870;37.336;2023-07-13T04:11:22;24.54;73.79
76104;HTU21D;64831;44.870;37.336;2023-07-13T04:13:49;24.55;73.83
76104;HTU21D;64831;44.870;37.336;2023-07-13T04:16:16;24.57;73.90
76104;HTU21D;64831;44.870;37.336;2023-07-13T04:18:42;24.62;73.88
76104;HTU21D;64831;44.870;37.336;2023-07-13T04:21:08;24.68;73.81
76104;HTU21D;64831;44.870;37.336;2023-07-13T04:23:36;24.75;73.83
76104;HTU21D;64831;44.870;37.336;2023-07-13T04:26:01;24.84;73.72
76104;HTU21D;64831;44.870;37.336;2023-07-13T04:28:27;24.89;73.64
76104;HTU21D;64831;44.870;37.336;2023-07-13T04:30:54;24.97;73.77
76104;HTU21D;64831;44.870;37.336;2023-07-13T04:33:20;25.07;73.64
76104;HTU21D;64831;44.870;37.336;2023-07-13T04:35:53;25.13;73.18
76104;HTU21D;64831;44.870;37.336;2023-07-13T04:38:26;25.13;73.00
76104;HTU21D;64831;44.870;37.336;2023-07-13T04:40:55;25.12;72.96
76104;HTU21D;64831;44.870;37.336;2023-07-13T04:43:23;25.08;73.19
76104;HTU21D;64831;44.870;37.336;2023-07-13T04:45:50;25.15;73.48
76104;HTU21D;64831;44.870;37.336;2023-07-13T04:48:16;25.25;73.38
76104;HTU21D;64831;44.870;37.336;2023-07-13T04:50:42;25.37;73.10
76104;HTU21D;64831;44.870;37.336;2023-07-13T04:53:09;25.43;72.87
76104;HTU21D;64831;44.870;37.336;2023-07-13T04:55:36;25.50;72.79
76104;HTU21D;64831;44.870;37.336;2023-07-13T04:58:03;25.62;72.64
76104;HTU21D;64831;44.870;37.336;2023-07-13T05:00:29;25.71;72.47
76104;HTU21D;64831;44.870;37.336;2023-07-13T05:02:56;25.74;71.77
76104;HTU21D;64831;44.870;37.336;2023-07-13T05:05:24;25.74;71.55
76104;HTU21D;64831;44.870;37.336;2023-07-13T05:07:50;25.73;71.58
76104;HTU21D;64831;44.870;37.336;2023-07-13T05:10:16;25.68;71.48
76104;HTU21D;64831;44.870;37.336;2023-07-13T05:12:42;25.68;71.58
76104;HTU21D;64831;44.870;37.336;2023-07-13T05:15:08;25.66;71.51
76104;HTU21D;64831;44.870;37.336;2023-07-13T05:17:34;25.67;71.49
76104;HTU21D;64831;44.870;37.336;2023-07-13T05:20:00;25.68;71.35
76104;HTU21D;64831;44.870;37.336;2023-07-13T05:22:26;25.66;71.14
76104;HTU21D;64831;44.870;37.336;2023-07-13T05:24:52;25.60;71.05
76104;HTU21D;64831;44.870;37.336;2023-07-13T05:27:18;25.58;70.99
76104;HTU21D;64831;44.870;37.336;2023-07-13T05:29:44;25.60;71.16
76104;HTU21D;64831;44.870;37.336;2023-07-13T05:32:10;25.62;71.09
76104;HTU21D;64831;44.870;37.336;2023-07-13T05:34:36;25.62;71.04
76104;HTU21D;64831;44.870;37.336;2023-07-13T05:37:02;25.61;71.05
76104;HTU21D;64831;44.870;37.336;2023-07-13T05:39:27;25.64;71.10
76104;HTU21D;64831;44.870;37.336;2023-07-13T05:41:53;25.67;70.89
76104;HTU21D;64831;44.870;37.336;2023-07-13T05:44:19;25.74;70.74
76104;HTU21D;64831;44.870;37.336;2023-07-13T05:46:46;25.81;70.58
76104;HTU21D;64831;44.870;37.336;2023-07-13T05:49:11;25.84;70.35
76104;HTU21D;64831;44.870;37.336;2023-07-13T05:51:37;25.92;70.64
76104;HTU21D;64831;44.870;37.336;2023-07-13T05:54:03;26.28;71.95
76104;HTU21D;64831;44.870;37.336;2023-07-13T05:56:29;26.94;71.04
76104;HTU21D;64831;44.870;37.336;2023-07-13T05:58:56;27.61;69.89
76104;HTU21D;64831;44.870;37.336;2023-07-13T06:01:22;28.04;65.13
76104;HTU21D;64831;44.870;37.336;2023-07-13T06:03:49;28.27;64.30
76104;HTU21D;64831;44.870;37.336;2023-07-13T06:06:16;28.50;64.47
76104;HTU21D;64831;44.870;37.336;2023-07-13T06:08:41;28.73;63.31
76104;HTU21D;64831;44.870;37.336;2023-07-13T06:11:22;28.97;61.68
76104;HTU21D;64831;44.870;37.336;2023-07-13T06:13:49;29.20;62.52
76104;HTU21D;64831;44.870;37.336;2023-07-13T06:16:15;29.54;61.67
76104;HTU21D;64831;44.870;37.336;2023-07-13T06:18:42;29.88;60.37
76104;HTU21D;64831;44.870;37.336;2023-07-13T06:21:10;30.20;59.63
76104;HTU21D;64831;44.870;37.336;2023-07-13T06:23:36;30.48;58.19
76104;HTU21D;64831;44.870;37.336;2023-07-13T06:26:03;30.71;57.32
76104;HTU21D;64831;44.870;37.336;2023-07-13T06:28:29;30.94;57.16
76104;HTU21D;64831;44.870;37.336;2023-07-13T06:30:57;31.39;56.24
76104;HTU21D;64831;44.870;37.336;2023-07-13T06:33:24;31.87;55.72
76104;HTU21D;64831;44.870;37.336;2023-07-13T06:35:50;32.19;53.75
76104;HTU21D;64831;44.870;37.336;2023-07-13T06:38:15;32.47;52.78
76104;HTU21D;64831;44.870;37.336;2023-07-13T06:40:41;32.22;51.50
76104;HTU21D;64831;44.870;37.336;2023-07-13T06:43:07;31.98;51.83
76104;HTU21D;64831;44.870;37.336;2023-07-13T06:45:44;31.96;52.30
76104;HTU21D;64831;44.870;37.336;2023-07-13T06:48:13;31.68;52.41
76104;HTU21D;64831;44.870;37.336;2023-07-13T06:50:40;31.80;52.56
76104;HTU21D;64831;44.870;37.336;2023-07-13T06:53:06;31.55;52.33
76104;HTU21D;64831;44.870;37.336;2023-07-13T06:55:32;31.57;52.66
76104;HTU21D;64831;44.870;37.336;2023-07-13T06:57:58;31.40;52.78
76104;HTU21D;64831;44.870;37.336;2023-07-13T07:00:24;31.66;53.15
76104;HTU21D;64831;44.870;37.336;2023-07-13T07:02:50;32.07;52.65
76104;HTU21D;64831;44.870;37.336;2023-07-13T07:05:16;32.37;51.44
76104;HTU21D;64831;44.870;37.336;2023-07-13T07:07:42;32.73;50.97
76104;HTU21D;64831;44.870;37.336;2023-07-13T07:10:08;32.85;49.63
76104;HTU21D;64831;44.870;37.336;2023-07-13T07:12:34;33.20;49.57
76104;HTU21D;64831;44.870;37.336;2023-07-13T07:15:00;33.42;48.57
76104;HTU21D;64831;44.870;37.336;2023-07-13T07:17:26;33.40;47.83
76104;HTU21D;64831;44.870;37.336;2023-07-13T07:19:52;33.76;47.91
76104;HTU21D;64831;44.870;37.336;2023-07-13T07:22:20;34.12;47.74
76104;HTU21D;64831;44.870;37.336;2023-07-13T07:24:46;34.46;47.00
76104;HTU21D;64831;44.870;37.336;2023-07-13T07:27:12;34.74;45.99
76104;HTU21D;64831;44.870;37.336;2023-07-13T07:29:38;34.79;45.38
76104;HTU21D;64831;44.870;37.336;2023-07-13T07:32:04;34.69;44.90
76104;HTU21D;64831;44.870;37.336;2023-07-13T07:34:30;34.85;44.91
76104;HTU21D;64831;44.870;37.336;2023-07-13T07:36:59;34.57;44.26
76104;HTU21D;64831;44.870;37.336;2023-07-13T07:39:26;33.97;45.16
76104;HTU21D;64831;44.870;37.336;2023-07-13T07:41:52;33.93;46.02
76104;HTU21D;64831;44.870;37.336;2023-07-13T07:44:18;33.85;46.02
76104;HTU21D;64831;44.870;37.336;2023-07-13T07:46:44;33.76;46.15
76104;HTU21D;64831;44.870;37.336;2023-07-13T07:49:10;33.60;46.29
76104;HTU21D;64831;44.870;37.336;2023-07-13T07:51:37;32.81;46.70
76104;HTU21D;64831;44.870;37.336;2023-07-13T07:54:04;32.91;46.96
76104;HTU21D;64831;44.870;37.336;2023-07-13T07:56:31;33.03;47.30
76104;HTU21D;64831;44.870;37.336;2023-07-13T07:58:57;32.58;47.81
76104;HTU21D;64831;44.870;37.336;2023-07-13T08:01:23;32.98;47.60
76104;HTU21D;64831;44.870;37.336;2023-07-13T08:03:49;33.15;47.65
76104;HTU21D;64831;44.870;37.336;2023-07-13T08:06:15;33.05;47.55
76104;HTU21D;64831;44.870;37.336;2023-07-13T08:08:41;33.06;47.67
76104;HTU21D;64831;44.870;37.336;2023-07-13T08:11:08;33.35;47.41
76104;HTU21D;64831;44.870;37.336;2023-07-13T08:13:35;33.08;47.10
76104;HTU21D;64831;44.870;37.336;2023-07-13T08:16:01;33.23;46.76
76104;HTU21D;64831;44.870;37.336;2023-07-13T08:18:27;33.28;46.80
76104;HTU21D;64831;44.870;37.336;2023-07-13T08:20:56;33.56;46.69
76104;HTU21D;64831;44.870;37.336;2023-07-13T08:23:22;33.77;45.74
76104;HTU21D;64831;44.870;37.336;2023-07-13T08:25:53;34.08;45.12
76104;HTU21D;64831;44.870;37.336;2023-07-13T08:28:22;34.38;44.40
76104;HTU21D;64831;44.870;37.336;2023-07-13T08:30:48;34.38;44.21
76104;HTU21D;64831;44.870;37.336;2023-07-13T08:33:21;34.60;43.53
76104;HTU21D;64831;44.870;37.336;2023-07-13T08:35:50;34.71;43.61
76104;HTU21D;64831;44.870;37.336;2023-07-13T08:38:17;34.84;43.49
76104;HTU21D;64831;44.870;37.336;2023-07-13T08:40:43;34.59;43.26
76104;HTU21D;64831;44.870;37.336;2023-07-13T08:43:16;34.64;42.13
76104;HTU21D;64831;44.870;37.336;2023-07-13T08:54:20;34.91;42.46
76104;HTU21D;64831;44.870;37.336;2023-07-13T08:56:48;34.53;42.22
76104;HTU21D;64831;44.870;37.336;2023-07-13T08:59:21;33.74;42.90
76104;HTU21D;64831;44.870;37.336;2023-07-13T09:10:36;34.41;41.92
76104;HTU21D;64831;44.870;37.336;2023-07-13T09:15:51;33.75;43.67
76104;HTU21D;64831;44.870;37.336;2023-07-13T09:18:38;34.16;43.43
76104;HTU21D;64831;44.870;37.336;2023-07-13T09:21:17;34.14;43.40
76104;HTU21D;64831;44.870;37.336;2023-07-13T09:23:44;34.25;43.35
76104;HTU21D;64831;44.870;37.336;2023-07-13T09:26:18;34.42;42.87
76104;HTU21D;64831;44.870;37.336;2023-07-13T09:28:47;34.51;43.07
76104;HTU21D;64831;44.870;37.336;2023-07-13T09:31:35;34.57;42.77
76104;HTU21D;64831;44.870;37.336;2023-07-13T09:34:02;34.64;42.69
76104;HTU21D;64831;44.870;37.336;2023-07-13T09:36:32;34.54;42.93
76104;HTU21D;64831;44.870;37.336;2023-07-13T09:39:27;34.45;42.01
76104;HTU21D;64831;44.870;37.336;2023-07-13T09:42:14;34.17;42.12
76104;HTU21D;64831;44.870;37.336;2023-07-13T09:47:23;33.96;43.55
76104;HTU21D;64831;44.870;37.336;2023-07-13T09:49:58;33.99;43.49
76104;HTU21D;64831;44.870;37.336;2023-07-13T09:52:25;34.10;43.62
76104;HTU21D;64831;44.870;37.336;2023-07-13T09:54:53;33.67;43.84
76104;HTU21D;64831;44.870;37.336;2023-07-13T09:57:26;33.43;44.35
76104;HTU21D;64831;44.870;37.336;2023-07-13T09:59:55;32.86;45.03
76104;HTU21D;64831;44.870;37.336;2023-07-13T10:02:27;32.67;45.09
76104;HTU21D;64831;44.870;37.336;2023-07-13T10:05:00;32.55;45.54
76104;HTU21D;64831;44.870;37.336;2023-07-13T10:07:27;32.24;46.09
76104;HTU21D;64831;44.870;37.336;2023-07-13T10:09:54;32.15;46.15
76104;HTU21D;64831;44.870;37.336;2023-07-13T10:12:20;31.94;46.78
76104;HTU21D;64831;44.870;37.336;2023-07-13T10:14:54;31.55;47.83
76104;HTU21D;64831;44.870;37.336;2023-07-13T10:17:27;31.34;48.31
76104;HTU21D;64831;44.870;37.336;2023-07-13T10:19:59;31.24;48.92
76104;HTU21D;64831;44.870;37.336;2023-07-13T10:25:25;30.94;49.55
76104;HTU21D;64831;44.870;37.336;2023-07-13T10:27:58;30.84;49.92
76104;HTU21D;64831;44.870;37.336;2023-07-13T10:30:38;30.66;50.85
76104;HTU21D;64831;44.870;37.336;2023-07-13T10:33:10;30.67;50.77
76104;HTU21D;64831;44.870;37.336;2023-07-13T10:35:37;30.71;50.76
76104;HTU21D;64831;44.870;37.336;2023-07-13T10:38:07;30.78;50.53
76104;HTU21D;64831;44.870;37.336;2023-07-13T10:40:48;30.75;50.52
76104;HTU21D;64831;44.870;37.336;2023-07-13T10:43:27;30.52;50.85
76104;HTU21D;64831;44.870;37.336;2023-07-13T10:45:54;30.41;51.04
76104;HTU21D;64831;44.870;37.336;2023-07-13T10:48:22;30.27;50.88
76104;HTU21D;64831;44.870;37.336;2023-07-13T10:50:50;30.30;50.88
76104;HTU21D;64831;44.870;37.336;2023-07-13T10:53:35;30.37;50.82
76104;HTU21D;64831;44.870;37.336;2023-07-13T10:58:41;30.38;50.53
76104;HTU21D;64831;44.870;37.336;2023-07-13T11:01:17;30.39;50.43
76104;HTU21D;64831;44.870;37.336;2023-07-13T11:06:39;30.26;51.02
76104;HTU21D;64831;44.870;37.336;2023-07-13T11:09:19;30.26;51.26
76104;HTU21D;64831;44.870;37.336;2023-07-13T11:11:45;30.24;51.07
76104;HTU21D;64831;44.870;37.336;2023-07-13T11:16:56;30.22;51.09
76104;HTU21D;64831;44.870;37.336;2023-07-13T11:32:50;29.75;51.18
76104;HTU21D;64831;44.870;37.336;2023-07-13T11:35:23;29.61;51.21
76104;HTU21D;64831;44.870;37.336;2023-07-13T11:37:52;29.50;51.48
76104;HTU21D;64831;44.870;37.336;2023-07-13T11:40:19;29.38;51.60
76104;HTU21D;64831;44.870;37.336;2023-07-13T11:42:48;29.33;51.63
76104;HTU21D;64831;44.870;37.336;2023-07-13T11:45:21;29.33;51.71
76104;HTU21D;64831;44.870;37.336;2023-07-13T11:47:49;29.30;51.88
76104;HTU21D;64831;44.870;37.336;2023-07-13T11:50:23;29.27;52.01
76104;HTU21D;64831;44.870;37.336;2023-07-13T11:52:50;29.24;52.17
76104;HTU21D;64831;44.870;37.336;2023-07-13T11:55:20;29.02;52.23
76104;HTU21D;64831;44.870;37.336;2023-07-13T11:57:51;28.87;52.76
76104;HTU21D;64831;44.870;37.336;2023-07-13T12:00:23;28.91;52.83
76104;HTU21D;64831;44.870;37.336;2023-07-13T12:02:55;28.91;52.77
76104;HTU21D;64831;44.870;37.336;2023-07-13T12:05:21;28.85;52.93
76104;HTU21D;64831;44.870;37.336;2023-07-13T12:07:49;28.65;53.11
76104;HTU21D;64831;44.870;37.336;2023-07-13T12:12:47;28.64;53.27
76104;HTU21D;64831;44.870;37.336;2023-07-13T12:15:13;28.65;53.13
76104;HTU21D;64831;44.870;37.336;2023-07-13T12:17:41;28.68;53.13
76104;HTU21D;64831;44.870;37.336;2023-07-13T12:20:27;28.61;53.17
76104;HTU21D;64831;44.870;37.336;2023-07-13T12:22:53;28.44;53.39
76104;HTU21D;64831;44.870;37.336;2023-07-13T12:25:21;28.37;53.46
76104;HTU21D;64831;44.870;37.336;2023-07-13T12:27:51;28.20;53.78
76104;HTU21D;64831;44.870;37.336;2023-07-13T12:30:26;28.17;54.01
76104;HTU21D;64831;44.870;37.336;2023-07-13T12:33:02;28.17;54.06
76104;HTU21D;64831;44.870;37.336;2023-07-13T12:35:41;28.16;53.97
76104;HTU21D;64831;44.870;37.336;2023-07-13T12:38:11;28.10;54.13
76104;HTU21D;64831;44.870;37.336;2023-07-13T12:40:37;28.09;54.48
76104;HTU21D;64831;44.870;37.336;2023-07-13T12:43:04;28.08;54.55
76104;HTU21D;64831;44.870;37.336;2023-07-13T12:45:33;28.02;54.80
76104;HTU21D;64831;44.870;37.336;2023-07-13T12:48:04;27.97;55.07
76104;HTU21D;64831;44.870;37.336;2023-07-13T12:50:38;27.87;55.51
76104;HTU21D;64831;44.870;37.336;2023-07-13T12:53:16;27.74;55.96
76104;HTU21D;64831;44.870;37.336;2023-07-13T12:55:48;27.65;56.00
76104;HTU21D;64831;44.870;37.336;2023-07-13T12:58:27;27.49;56.55
76104;HTU21D;64831;44.870;37.336;2023-07-13T13:00:56;27.40;56.33
76104;HTU21D;64831;44.870;37.336;2023-07-13T13:03:32;27.30;56.64
76104;HTU21D;64831;44.870;37.336;2023-07-13T13:08:25;27.24;57.10
76104;HTU21D;64831;44.870;37.336;2023-07-13T13:10:51;27.19;57.19
76104;HTU21D;64831;44.870;37.336;2023-07-13T13:13:17;27.11;57.64
76104;HTU21D;64831;44.870;37.336;2023-07-13T13:15:43;27.12;57.84
76104;HTU21D;64831;44.870;37.336;2023-07-13T13:18:20;27.09;58.24
76104;HTU21D;64831;44.870;37.336;2023-07-13T13:20:52;27.00;58.61
76104;HTU21D;64831;44.870;37.336;2023-07-13T13:23:26;26.97;58.32
76104;HTU21D;64831;44.870;37.336;2023-07-13T13:25:53;26.91;58.45
76104;HTU21D;64831;44.870;37.336;2023-07-13T13:28:20;26.96;58.45
76104;HTU21D;64831;44.870;37.336;2023-07-13T13:30:48;26.98;58.63
76104;HTU21D;64831;44.870;37.336;2023-07-13T13:33:18;27.05;58.45
76104;HTU21D;64831;44.870;37.336;2023-07-13T13:35:45;27.08;58.15
76104;HTU21D;64831;44.870;37.336;2023-07-13T13:38:16;26.95;58.53
76104;HTU21D;64831;44.870;37.336;2023-07-13T13:40:53;26.91;58.41
76104;HTU21D;64831;44.870;37.336;2023-07-13T13:43:26;26.86;58.57
76104;HTU21D;64831;44.870;37.336;2023-07-13T13:45:54;26.66;59.13
76104;HTU21D;64831;44.870;37.336;2023-07-13T13:48:33;26.57;59.34
76104;HTU21D;64831;44.870;37.336;2023-07-13T13:51:00;26.54;59.25
76104;HTU21D;64831;44.870;37.336;2023-07-13T13:53:27;26.50;59.32
76104;HTU21D;64831;44.870;37.336;2023-07-13T13:55:54;26.51;59.22
76104;HTU21D;64831;44.870;37.336;2023-07-13T13:58:20;26.50;59.35
76104;HTU21D;64831;44.870;37.336;2023-07-13T14:00:47;26.51;59.35
76104;HTU21D;64831;44.870;37.336;2023-07-13T14:03:18;26.53;59.25
76104;HTU21D;64831;44.870;37.336;2023-07-13T14:05:46;26.49;59.57
76104;HTU21D;64831;44.870;37.336;2023-07-13T14:08:14;26.46;59.51
76104;HTU21D;64831;44.870;37.336;2023-07-13T14:10:41;26.47;59.43
76104;HTU21D;64831;44.870;37.336;2023-07-13T14:13:17;26.50;59.23
76104;HTU21D;64831;44.870;37.336;2023-07-13T14:15:44;26.38;59.40
76104;HTU21D;64831;44.870;37.336;2023-07-13T14:18:11;26.32;59.56
76104;HTU21D;64831;44.870;37.336;2023-07-13T14:20:37;26.30;59.76
76104;HTU21D;64831;44.870;37.336;2023-07-13T14:23:03;26.28;59.91
76104;HTU21D;64831;44.870;37.336;2023-07-13T14:25:29;26.25;59.82
76104;HTU21D;64831;44.870;37.336;2023-07-13T14:27:58;26.24;59.73
76104;HTU21D;64831;44.870;37.336;2023-07-13T14:30:25;26.17;59.80
76104;HTU21D;64831;44.870;37.336;2023-07-13T14:32:51;26.12;59.66
76104;HTU21D;64831;44.870;37.336;2023-07-13T14:35:21;25.98;60.03
76104;HTU21D;64831;44.870;37.336;2023-07-13T14:37:49;25.88;60.58
76104;HTU21D;64831;44.870;37.336;2023-07-13T14:40:23;25.88;60.35
76104;HTU21D;64831;44.870;37.336;2023-07-13T14:42:50;25.87;60.60
76104;HTU21D;64831;44.870;37.336;2023-07-13T14:45:19;25.87;60.45
76104;HTU21D;64831;44.870;37.336;2023-07-13T14:47:46;25.84;60.43
76104;HTU21D;64831;44.870;37.336;2023-07-13T14:50:20;25.76;60.69
76104;HTU21D;64831;44.870;37.336;2023-07-13T14:52:47;25.72;60.62
76104;HTU21D;64831;44.870;37.336;2023-07-13T14:55:16;25.66;60.77
76104;HTU21D;64831;44.870;37.336;2023-07-13T14:57:42;25.58;61.19
76104;HTU21D;64831;44.870;37.336;2023-07-13T15:00:16;25.53;61.12
76104;HTU21D;64831;44.870;37.336;2023-07-13T15:02:46;25.51;60.95
76104;HTU21D;64831;44.870;37.336;2023-07-13T15:05:15;25.52;60.93
76104;HTU21D;64831;44.870;37.336;2023-07-13T15:07:41;25.51;60.93
76104;HTU21D;64831;44.870;37.336;2023-07-13T15:10:15;25.49;61.09
76104;HTU21D;64831;44.870;37.336;2023-07-13T15:12:41;25.48;61.01
76104;HTU21D;64831;44.870;37.336;2023-07-13T15:15:07;25.46;60.94
76104;HTU21D;64831;44.870;37.336;2023-07-13T15:17:37;25.38;61.28
76104;HTU21D;64831;44.870;37.336;2023-07-13T15:20:06;25.35;61.60
76104;HTU21D;64831;44.870;37.336;2023-07-13T15:22:37;25.33;61.53
76104;HTU21D;64831;44.870;37.336;2023-07-13T15:25:03;25.23;62.41
76104;HTU21D;64831;44.870;37.336;2023-07-13T15:27:31;25.23;62.40
76104;HTU21D;64831;44.870;37.336;2023-07-13T15:29:57;25.19;62.82
76104;HTU21D;64831;44.870;37.336;2023-07-13T15:32:23;25.16;63.24
76104;HTU21D;64831;44.870;37.336;2023-07-13T15:35:16;25.12;63.72
76104;HTU21D;64831;44.870;37.336;2023-07-13T15:37:53;25.04;63.50
76104;HTU21D;64831;44.870;37.336;2023-07-13T15:40:20;24.99;63.84
76104;HTU21D;64831;44.870;37.336;2023-07-13T15:42:49;24.91;63.87
76104;HTU21D;64831;44.870;37.336;2023-07-13T15:45:20;24.92;63.47
76104;HTU21D;64831;44.870;37.336;2023-07-13T15:47:48;24.92;63.40
76104;HTU21D;64831;44.870;37.336;2023-07-13T15:50:19;24.91;63.29
76104;HTU21D;64831;44.870;37.336;2023-07-13T15:52:58;24.94;63.08
76104;HTU21D;64831;44.870;37.336;2023-07-13T15:55:24;24.97;62.95
76104;HTU21D;64831;44.870;37.336;2023-07-13T15:57:58;24.98;62.87
76104;HTU21D;64831;44.870;37.336;2023-07-13T16:00:26;24.98;62.95
76104;HTU21D;64831;44.870;37.336;2023-07-13T16:02:53;24.95;62.98
76104;HTU21D;64831;44.870;37.336;2023-07-13T16:05:21;24.94;62.87
76104;HTU21D;64831;44.870;37.336;2023-07-13T16:07:49;24.91;63.08